sensor_id;sensor_type;location;lat;lon;timestamp;pressure;altitude;pressure_sealevel;temperature;humidity
10470;BME280;5282;47.052;15.458;2023-07-31T00:00:11;97498.00;;;17.74;100.00
10470;BME280;5282;47.052;15.458;2023-07-31T00:02:38;97494.38;;;18.01;100.00
10470;BME280;5282;47.052;15.458;2023-07-31T00:05:05;97489.81;;;18.33;100.00
10470;BME280;5282;47.052;15.458;2023-07-31T00:07:32;97482.03;;;18.37;100.00
10470;BME280;5282;47.052;15.458;2023-07-31T00:09:59;97488.44;;;18.17;100.00
10470;BME280;5282;47.052;15.458;2023-07-31T00:12:26;97483.78;;;18.25;100.00
10470;BME280;5282;47.052;15.458;2023-07-31T00:14:54;97486.41;;;18.06;100.00
10470;BME280;5282;47.052;15.458;2023-07-31T00:17:21;97483.53;;;17.87;100.00
10470;BME280;5282;47.052;15.458;2023-07-31T00:19:48;97481.06;;;17.72;100.00
10470;BME280;5282;47.052;15.458;2023-07-31T00:22:16;97491.56;;;17.62;100.00
10470;BME280;5282;47.052;15.458;2023-07-31T00:24:43;97492.63;;;17.54;100.00
10470;BME280;5282;47.052;15.458;2023-07-31T00:27:10;97483.41;;;17.62;100.00
10470;BME280;5282;47.052;15.458;2023-07-31T00:29:36;97489.72;;;17.56;100.00
10470;BME280;5282;47.052;15.458;2023-07-31T00:32:06;97490.75;;;17.55;100.00
10470;BME280;5282;47.052;15.458;2023-07-31T00:34:33;97492.03;;;17.52;100.00
10470;BME280;5282;47.052;15.458;2023-07-31T00:37:00;97493.06;;;17.51;100.00
10470;BME280;5282;47.052;15.458;2023-07-31T00:39:26;97490.75;;;17.55;100.00
10470;BME280;5282;47.052;15.458;2023-07-31T00:41:55;97492.81;;;17.66;100.00
10470;BME280;5282;47.052;15.458;2023-07-31T00:44:22;97489.22;;;17.72;100.00
10470;BME280;5282;47.052;15.458;2023-07-31T00:46:49;97489.56;;;18.03;100.00
10470;BME280;5282;47.052;15.458;2023-07-31T00:49:17;97484.41;;;18.27;100.00
10470;BME280;5282;47.052;15.458;2023-07-31T00:51:44;97478.91;;;18.33;100.00
10470;BME280;5282;47.052;15.458;2023-07-31T00:54:13;97482.53;;;18.27;100.00
10470;BME280;5282;47.052;15.458;2023-07-31T00:56:40;97480.50;;;18.16;100.00
10470;BME280;5282;47.052;15.458;2023-07-31T00:59:08;97487.56;;;17.71;100.00
10470;BME280;5282;47.052;15.458;2023-07-31T01:01:35;97481.94;;;17.66;100.00
10470;BME280;5282;47.052;15.458;2023-07-31T01:04:02;97485.31;;;17.55;100.00
10470;BME280;5282;47.052;15.458;2023-07-31T01:06:37;97484.47;;;17.54;100.00
10470;BME280;5282;47.052;15.458;2023-07-31T01:09:11;97490.34;;;17.51;100.00
10470;BME280;5282;47.052;15.458;2023-07-31T01:11:46;97476.53;;;17.39;100.00
10470;BME280;5282;47.052;15.458;2023-07-31T01:14:14;97473.41;;;17.42;100.00
10470;BME280;5282;47.052;15.458;2023-07-31T01:16:41;97472.34;;;17.43;100.00
10470;BME280;5282;47.052;15.458;2023-07-31T01:19:09;97477.81;;;17.43;100.00
10470;BME280;5282;47.052;15.458;2023-07-31T01:22:04;97479.25;;;17.46;100.00
10470;BME280;5282;47.052;15.458;2023-07-31T01:24:43;97470.69;;;17.42;100.00
10470;BME280;5282;47.052;15.458;2023-07-31T01:27:23;97485.56;;;17.40;100.00
10470;BME280;5282;47.052;15.458;2023-07-31T01:29:56;97480.31;;;17.38;100.00
10470;BME280;5282;47.052;15.458;2023-07-31T01:32:27;97483.69;;;17.27;100.00
10470;BME280;5282;47.052;15.458;2023-07-31T01:34:56;97482.66;;;17.21;100.00
10470;BME280;5282;47.052;15.458;2023-07-31T01:37:28;97474.47;;;17.28;100.00
10470;BME280;5282;47.052;15.458;2023-07-31T01:39:54;97481.41;;;17.31;100.00
10470;BME280;5282;47.052;15.458;2023-07-31T01:42:23;97482.22;;;17.38;100.00
10470;BME280;5282;47.052;15.458;2023-07-31T01:44:49;97485.34;;;17.41;100.00
10470;BME280;5282;47.052;15.458;2023-07-31T01:47:16;97483.00;;;17.52;100.00
10470;BME280;5282;47.052;15.458;2023-07-31T01:49:43;97486.34;;;17.54;100.00
10470;BME280;5282;47.052;15.458;2023-07-31T01:52:10;97483.88;;;17.39;100.00
10470;BME280;5282;47.052;15.458;2023-07-31T01:54:37;97482.00;;;17.33;100.00
10470;BME280;5282;47.052;15.458;2023-07-31T01:57:04;97489.56;;;17.31;100.00
10470;BME280;5282;47.052;15.458;2023-07-31T01:59:32;97484.13;;;17.31;100.00
10470;BME280;5282;47.052;15.458;2023-07-31T02:01:59;97482.00;;;17.33;100.00
10470;BME280;5282;47.052;15.458;2023-07-31T02:04:26;97481.19;;;17.25;100.00
10470;BME280;5282;47.052;15.458;2023-07-31T02:06:53;97480.78;;;17.29;100.00
10470;BME280;5282;47.052;15.458;2023-07-31T02:09:20;97486.63;;;17.32;100.00
10470;BME280;5282;47.052;15.458;2023-07-31T02:11:47;97493.31;;;17.30;100.00
10470;BME280;5282;47.052;15.458;2023-07-31T02:14:14;97498.78;;;17.16;100.00
10470;BME280;5282;47.052;15.458;2023-07-31T02:16:42;97492.94;;;17.13;100.00
10470;BME280;5282;47.052;15.458;2023-07-31T02:19:09;97494.19;;;16.96;100.00
10470;BME280;5282;47.052;15.458;2023-07-31T02:21:37;97501.69;;;16.88;100.00
10470;BME280;5282;47.052;15.458;2023-07-31T02:24:04;97505.03;;;16.90;100.00
10470;BME280;5282;47.052;15.458;2023-07-31T02:26:31;97505.47;;;16.93;100.00
10470;BME280;5282;47.052;15.458;2023-07-31T02:28:58;97497.06;;;17.42;100.00
10470;BME280;5282;47.052;15.458;2023-07-31T02:31:25;97485.72;;;17.58;100.00
10470;BME280;5282;47.052;15.458;2023-07-31T02:33:54;97488.72;;;17.23;100.00
10470;BME280;5282;47.052;15.458;2023-07-31T02:36:20;97488.53;;;16.98;100.00
10470;BME280;5282;47.052;15.458;2023-07-31T02:38:47;97501.06;;;16.92;100.00
10470;BME280;5282;47.052;15.458;2023-07-31T02:41:14;97502.53;;;16.95;100.00
10470;BME280;5282;47.052;15.458;2023-07-31T02:43:41;97504.81;;;16.91;100.00
10470;BME280;5282;47.052;15.458;2023-07-31T02:46:08;97508.78;;;16.69;100.00
10470;BME280;5282;47.052;15.458;2023-07-31T02:48:35;97519.66;;;16.62;100.00
10470;BME280;5282;47.052;15.458;2023-07-31T02:51:03;97514.81;;;16.57;100.00
10470;BME280;5282;47.052;15.458;2023-07-31T02:53:30;97519.63;;;16.55;100.00
10470;BME280;5282;47.052;15.458;2023-07-31T02:55:57;97516.28;;;16.53;100.00
10470;BME280;5282;47.052;15.458;2023-07-31T02:58:23;97511.72;;;16.60;100.00
10470;BME280;5282;47.052;15.458;2023-07-31T03:00:50;97508.56;;;16.63;100.00
10470;BME280;5282;47.052;15.458;2023-07-31T03:03:17;97512.31;;;16.69;100.00
10470;BME280;5282;47.052;15.458;2023-07-31T03:05:44;97504.81;;;16.78;100.00
10470;BME280;5282;47.052;15.458;2023-07-31T03:08:12;97504.81;;;16.78;100.00
10470;BME280;5282;47.052;15.458;2023-07-31T03:10:39;97510.47;;;16.76;100.00
10470;BME280;5282;47.052;15.458;2023-07-31T03:13:07;97505.84;;;16.77;100.00
10470;BME280;5282;47.052;15.458;2023-07-31T03:15:33;97502.72;;;16.80;100.00
10470;BME280;5282;47.052;15.458;2023-07-31T03:18:01;97505.84;;;16.77;100.00
10470;BME280;5282;47.052;15.458;2023-07-31T03:20:27;97513.81;;;16.72;100.00
10470;BME280;5282;47.052;15.458;2023-07-31T03:22:54;97515.91;;;16.70;100.00
10470;BME280;5282;47.052;15.458;2023-07-31T03:25:22;97516.72;;;16.70;100.00
10470;BME280;5282;47.052;15.458;2023-07-31T03:27:49;97518.41;;;16.71;100.00
10470;BME280;5282;47.052;15.458;2023-07-31T03:30:19;97528.00;;;16.74;100.00
10470;BME280;5282;47.052;15.458;2023-07-31T03:32:46;97536.78;;;16.76;100.00
10470;BME280;5282;47.052;15.458;2023-07-31T03:35:13;97524.69;;;16.92;100.00
10470;BME280;5282;47.052;15.458;2023-07-31T03:37:39;97529.50;;;16.83;100.00
10470;BME280;5282;47.052;15.458;2023-07-31T03:40:07;97525.94;;;16.76;100.00
10470;BME280;5282;47.052;15.458;2023-07-31T03:42:36;97527.41;;;16.72;100.00
10470;BME280;5282;47.052;15.458;2023-07-31T03:45:03;97520.47;;;16.62;100.00
10470;BME280;5282;47.052;15.458;2023-07-31T03:47:32;97525.91;;;16.49;100.00
10470;BME280;5282;47.052;15.458;2023-07-31T03:49:59;97520.03;;;16.52;100.00
10470;BME280;5282;47.052;15.458;2023-07-31T03:52:26;97529.03;;;16.53;100.00
10470;BME280;5282;47.052;15.458;2023-07-31T03:54:53;97531.94;;;16.51;100.00
10470;BME280;5282;47.052;15.458;2023-07-31T03:57:20;97520.94;;;16.79;100.00
10470;BME280;5282;47.052;15.458;2023-07-31T03:59:48;97522.34;;;16.62;100.00
10470;BME280;5282;47.052;15.458;2023-07-31T04:02:15;97522.94;;;16.44;100.00
10470;BME280;5282;47.052;15.458;2023-07-31T04:04:44;97528.81;;;16.47;100.00
10470;BME280;5282;47.052;15.458;2023-07-31T04:07:11;97534.66;;;16.51;100.00
10470;BME280;5282;47.052;15.458;2023-07-31T04:09:37;97529.25;;;16.58;100.00
10470;BME280;5282;47.052;15.458;2023-07-31T04:12:04;97522.75;;;16.52;100.00
10470;BME280;5282;47.052;15.458;2023-07-31T04:14:31;97531.53;;;16.54;100.00
10470;BME280;5282;47.052;15.458;2023-07-31T04:16:59;97534.91;;;16.56;100.00
10470;BME280;5282;47.052;15.458;2023-07-31T04:19:26;97529.69;;;16.55;100.00
10470;BME280;5282;47.052;15.458;2023-07-31T04:21:53;97531.75;;;16.53;100.00
10470;BME280;5282;47.052;15.458;2023-07-31T04:24:22;97526.16;;;16.74;100.00
10470;BME280;5282;47.052;15.458;2023-07-31T04:26:50;97529.25;;;16.71;100.00
10470;BME280;5282;47.052;15.458;2023-07-31T04:29:17;97532.19;;;16.56;100.00
10470;BME280;5282;47.052;15.458;2023-07-31T04:31:44;97528.19;;;16.59;100.00
10470;BME280;5282;47.052;15.458;2023-07-31T04:34:12;97528.47;;;16.84;100.00
10470;BME280;5282;47.052;15.458;2023-07-31T04:36:41;97530.34;;;16.84;100.00
10470;BME280;5282;47.052;15.458;2023-07-31T04:39:08;97523.84;;;16.71;100.00
10470;BME280;5282;47.052;15.458;2023-07-31T04:41:35;97535.09;;;16.48;100.00
10470;BME280;5282;47.052;15.458;2023-07-31T04:44:02;97548.00;;;16.32;100.00
10470;BME280;5282;47.052;15.458;2023-07-31T04:46:29;97550.75;;;16.39;100.00
10470;BME280;5282;47.052;15.458;2023-07-31T04:48:56;97543.88;;;16.50;100.00
10470;BME280;5282;47.052;15.458;2023-07-31T04:51:24;97541.44;;;16.82;100.00
10470;BME280;5282;47.052;15.458;2023-07-31T04:53:54;97536.22;;;17.01;100.00
10470;BME280;5282;47.052;15.458;2023-07-31T04:56:21;97524.72;;;17.12;100.00
10470;BME280;5282;47.052;15.458;2023-07-31T04:58:48;97526.81;;;17.17;100.00
10470;BME280;5282;47.052;15.458;2023-07-31T05:01:14;97523.91;;;17.11;100.00
10470;BME280;5282;47.052;15.458;2023-07-31T05:03:41;97527.66;;;17.04;100.00
10470;BME280;5282;47.052;15.458;2023-07-31T05:06:08;97533.91;;;16.98;100.00
10470;BME280;5282;47.052;15.458;2023-07-31T05:08:36;97529.75;;;17.02;100.00
10470;BME280;5282;47.052;15.458;2023-07-31T05:11:03;97531.00;;;17.13;100.00
10470;BME280;5282;47.052;15.458;2023-07-31T05:13:31;97531.00;;;17.13;100.00
10470;BME280;5282;47.052;15.458;2023-07-31T05:15:58;97534.97;;;17.10;100.00
10470;BME280;5282;47.052;15.458;2023-07-31T05:18:24;97533.91;;;17.11;100.00
10470;BME280;5282;47.052;15.458;2023-07-31T05:20:51;97541.84;;;16.92;100.00
10470;BME280;5282;47.052;15.458;2023-07-31T05:23:18;97545.44;;;17.00;100.00
10470;BME280;5282;47.052;15.458;2023-07-31T05:25:46;97542.06;;;16.98;100.00
10470;BME280;5282;47.052;15.458;2023-07-31T05:28:13;97552.78;;;17.06;100.00
10470;BME280;5282;47.052;15.458;2023-07-31T05:30:40;97547.94;;;17.21;100.00
10470;BME280;5282;47.052;15.458;2023-07-31T05:33:07;97542.53;;;17.08;100.00
10470;BME280;5282;47.052;15.458;2023-07-31T05:35:33;97554.22;;;17.15;100.00
10470;BME280;5282;47.052;15.458;2023-07-31T05:38:00;97562.16;;;17.10;100.00
10470;BME280;5282;47.052;15.458;2023-07-31T05:40:27;97574.94;;;16.96;100.00
10470;BME280;5282;47.052;15.458;2023-07-31T05:42:55;97572.22;;;17.03;100.00
10470;BME280;5282;47.052;15.458;2023-07-31T05:45:22;97572.84;;;17.05;100.00
10470;BME280;5282;47.052;15.458;2023-07-31T05:47:49;97578.50;;;16.96;100.00
10470;BME280;5282;47.052;15.458;2023-07-31T05:50:16;97570.31;;;17.03;100.00
10470;BME280;5282;47.052;15.458;2023-07-31T05:52:42;97572.41;;;17.21;100.00
10470;BME280;5282;47.052;15.458;2023-07-31T05:55:09;97569.50;;;17.36;100.00
10470;BME280;5282;47.052;15.458;2023-07-31T05:57:39;97563.63;;;17.53;100.00
10470;BME280;5282;47.052;15.458;2023-07-31T06:00:08;97565.69;;;17.71;100.00
10470;BME280;5282;47.052;15.458;2023-07-31T06:02:35;97562.56;;;17.67;100.00
10470;BME280;5282;47.052;15.458;2023-07-31T06:05:03;97564.00;;;17.77;100.00
10470;BME280;5282;47.052;15.458;2023-07-31T06:07:31;97562.53;;;17.74;100.00
10470;BME280;5282;47.052;15.458;2023-07-31T06:09:58;97561.88;;;17.85;100.00
10470;BME280;5282;47.052;15.458;2023-07-31T06:12:31;97561.03;;;17.78;100.00
10470;BME280;5282;47.052;15.458;2023-07-31T06:14:58;97556.44;;;17.85;100.00
10470;BME280;5282;47.052;15.458;2023-07-31T06:17:29;97550.34;;;17.90;100.00
10470;BME280;5282;47.052;15.458;2023-07-31T06:19:56;97548.00;;;18.07;100.00
10470;BME280;5282;47.052;15.458;2023-07-31T06:22:23;97532.31;;;18.02;100.00
10470;BME280;5282;47.052;15.458;2023-07-31T06:24:52;97537.75;;;18.09;100.00
10470;BME280;5282;47.052;15.458;2023-07-31T06:27:19;97542.13;;;18.17;100.00
10470;BME280;5282;47.052;15.458;2023-07-31T06:29:46;97531.44;;;18.09;100.00
10470;BME280;5282;47.052;15.458;2023-07-31T06:32:13;97540.09;;;17.99;100.00
10470;BME280;5282;47.052;15.458;2023-07-31T06:34:41;97536.31;;;18.00;100.00
10470;BME280;5282;47.052;15.458;2023-07-31T06:37:08;97540.00;;;18.19;100.00
10470;BME280;5282;47.052;15.458;2023-07-31T06:39:35;97541.56;;;18.40;100.00
10470;BME280;5282;47.052;15.458;2023-07-31T06:42:03;97534.81;;;18.49;100.00
10470;BME280;5282;47.052;15.458;2023-07-31T06:44:30;97536.00;;;18.60;100.00
10470;BME280;5282;47.052;15.458;2023-07-31T06:46:57;97533.88;;;18.69;100.00
10470;BME280;5282;47.052;15.458;2023-07-31T06:49:24;97532.44;;;18.92;100.00
10470;BME280;5282;47.052;15.458;2023-07-31T06:51:52;97527.00;;;18.92;100.00
10470;BME280;5282;47.052;15.458;2023-07-31T06:54:19;97523.47;;;18.85;100.00
10470;BME280;5282;47.052;15.458;2023-07-31T06:56:45;97524.44;;;18.97;100.00
10470;BME280;5282;47.052;15.458;2023-07-31T06:59:12;97527.19;;;18.97;100.00
10470;BME280;5282;47.052;15.458;2023-07-31T07:01:39;97515.38;;;19.29;100.00
10470;BME280;5282;47.052;15.458;2023-07-31T07:04:08;97518.19;;;19.40;100.00
10470;BME280;5282;47.052;15.458;2023-07-31T07:06:35;97520.91;;;19.40;100.00
10470;BME280;5282;47.052;15.458;2023-07-31T07:09:03;97512.97;;;19.57;100.00
10470;BME280;5282;47.052;15.458;2023-07-31T07:11:31;97512.22;;;19.69;100.00
10470;BME280;5282;47.052;15.458;2023-07-31T07:13:57;97513.53;;;19.66;100.00
10470;BME280;5282;47.052;15.458;2023-07-31T07:16:24;97520.97;;;19.78;100.00
10470;BME280;5282;47.052;15.458;2023-07-31T07:18:51;97520.59;;;19.93;100.00
10470;BME280;5282;47.052;15.458;2023-07-31T07:21:20;97527.34;;;20.09;100.00
10470;BME280;5282;47.052;15.458;2023-07-31T07:23:47;97529.59;;;20.00;100.00
10470;BME280;5282;47.052;15.458;2023-07-31T07:26:15;97525.84;;;20.13;100.00
10470;BME280;5282;47.052;15.458;2023-07-31T07:28:42;97533.44;;;20.29;100.00
10470;BME280;5282;47.052;15.458;2023-07-31T07:31:09;97526.00;;;20.48;100.00
10470;BME280;5282;47.052;15.458;2023-07-31T07:33:36;97525.91;;;20.55;100.00
10470;BME280;5282;47.052;15.458;2023-07-31T07:36:03;97521.03;;;20.57;100.00
10470;BME280;5282;47.052;15.458;2023-07-31T07:38:35;97514.91;;;20.74;100.00
10470;BME280;5282;47.052;15.458;2023-07-31T07:41:04;97517.34;;;20.82;100.00
10470;BME280;5282;47.052;15.458;2023-07-31T07:43:33;97510.91;;;20.88;100.00
10470;BME280;5282;47.052;15.458;2023-07-31T07:45:59;97517.25;;;21.01;100.00
10470;BME280;5282;47.052;15.458;2023-07-31T07:48:26;97517.84;;;21.03;100.00
10470;BME280;5282;47.052;15.458;2023-07-31T07:50:53;97515.25;;;21.08;100.00
10470;BME280;5282;47.052;15.458;2023-07-31T07:53:20;97500.28;;;21.22;100.00
10470;BME280;5282;47.052;15.458;2023-07-31T07:55:47;97504.09;;;21.33;100.00
10470;BME280;5282;47.052;15.458;2023-07-31T07:58:14;97505.38;;;21.42;100.00
10470;BME280;5282;47.052;15.458;2023-07-31T08:00:48;97502.31;;;21.51;100.00
10470;BME280;5282;47.052;15.458;2023-07-31T08:03:15;97508.59;;;21.51;100.00
10470;BME280;5282;47.052;15.458;2023-07-31T08:05:42;97500.78;;;21.67;100.00
10470;BME280;5282;47.052;15.458;2023-07-31T08:08:13;97504.22;;;21.74;100.00
10470;BME280;5282;47.052;15.458;2023-07-31T08:10:40;97495.84;;;21.81;100.00
10470;BME280;5282;47.052;15.458;2023-07-31T08:13:07;97488.09;;;21.90;100.00
10470;BME280;5282;47.052;15.458;2023-07-31T08:15:34;97493.19;;;21.98;100.00
10470;BME280;5282;47.052;15.458;2023-07-31T08:18:02;97490.31;;;22.04;100.00
10470;BME280;5282;47.052;15.458;2023-07-31T08:20:29;97490.78;;;22.13;100.00
10470;BME280;5282;47.052;15.458;2023-07-31T08:22:56;97494.09;;;22.15;100.00
10470;BME280;5282;47.052;15.458;2023-07-31T08:25:23;97490.47;;;22.27;100.00
10470;BME280;5282;47.052;15.458;2023-07-31T08:27:50;97495.06;;;22.50;100.00
10470;BME280;5282;47.052;15.458;2023-07-31T08:30:18;97491.09;;;22.58;100.00
10470;BME280;5282;47.052;15.458;2023-07-31T08:32:45;97496.84;;;22.73;100.00
10470;BME280;5282;47.052;15.458;2023-07-31T08:35:13;97489.94;;;22.71;100.00
10470;BME280;5282;47.052;15.458;2023-07-31T08:37:40;97495.63;;;22.81;100.00
10470;BME280;5282;47.052;15.458;2023-07-31T08:40:08;97489.03;;;22.82;100.00
10470;BME280;5282;47.052;15.458;2023-07-31T08:42:43;97485.56;;;22.87;100.00
10470;BME280;5282;47.052;15.458;2023-07-31T08:45:13;97494.38;;;23.06;100.00
10470;BME280;5282;47.052;15.458;2023-07-31T08:47:42;97490.88;;;23.10;100.00
10470;BME280;5282;47.052;15.458;2023-07-31T08:50:09;97497.38;;;23.04;100.00
10470;BME280;5282;47.052;15.458;2023-07-31T08:52:39;97490.72;;;23.17;100.00
10470;BME280;5282;47.052;15.458;2023-07-31T08:55:07;97489.78;;;23.23;100.00
10470;BME280;5282;47.052;15.458;2023-07-31T08:57:37;97489.22;;;23.44;100.00
10470;BME280;5282;47.052;15.458;2023-07-31T09:00:05;97484.72;;;23.54;100.00
10470;BME280;5282;47.052;15.458;2023-07-31T09:02:35;97487.69;;;23.53;100.00
10470;BME280;5282;47.052;15.458;2023-07-31T09:05:04;97486.06;;;23.52;100.00
10470;BME280;5282;47.052;15.458;2023-07-31T09:07:33;97493.56;;;23.56;100.00
10470;BME280;5282;47.052;15.458;2023-07-31T09:10:03;97493.38;;;23.85;100.00
10470;BME280;5282;47.052;15.458;2023-07-31T09:12:31;97486.56;;;24.10;100.00
10470;BME280;5282;47.052;15.458;2023-07-31T09:14:58;97493.69;;;23.89;100.00
10470;BME280;5282;47.052;15.458;2023-07-31T09:17:29;97483.50;;;24.07;100.00
10470;BME280;5282;47.052;15.458;2023-07-31T09:19:56;97482.53;;;24.18;100.00
10470;BME280;5282;47.052;15.458;2023-07-31T09:22:32;97488.81;;;24.13;100.00
10470;BME280;5282;47.052;15.458;2023-07-31T09:25:14;97479.03;;;24.23;100.00
10470;BME280;5282;47.052;15.458;2023-07-31T09:27:49;97483.97;;;24.48;100.00
10470;BME280;5282;47.052;15.458;2023-07-31T09:30:17;97482.78;;;24.39;100.00
10470;BME280;5282;47.052;15.458;2023-07-31T09:32:45;97473.47;;;24.45;100.00
10470;BME280;5282;47.052;15.458;2023-07-31T09:35:20;97474.47;;;24.61;100.00
10470;BME280;5282;47.052;15.458;2023-07-31T09:37:51;97470.66;;;24.67;100.00
10470;BME280;5282;47.052;15.458;2023-07-31T09:40:30;97464.34;;;24.67;100.00
10470;BME280;5282;47.052;15.458;2023-07-31T09:42:57;97465.56;;;24.76;100.00
10470;BME280;5282;47.052;15.458;2023-07-31T09:45:25;97454.94;;;24.90;100.00
10470;BME280;5282;47.052;15.458;2023-07-31T09:47:52;97457.41;;;24.91;100.00
10470;BME280;5282;47.052;15.458;2023-07-31T09:50:20;97453.72;;;25.08;100.00
10470;BME280;5282;47.052;15.458;2023-07-31T09:52:48;97455.09;;;25.10;100.00
10470;BME280;5282;47.052;15.458;2023-07-31T09:55:15;97439.66;;;24.72;100.00
10470;BME280;5282;47.052;15.458;2023-07-31T09:57:45;97443.41;;;24.93;100.00
10470;BME280;5282;47.052;15.458;2023-07-31T10:00:13;97445.75;;;25.11;100.00
10470;BME280;5282;47.052;15.458;2023-07-31T10:02:41;97436.44;;;25.23;100.00
10470;BME280;5282;47.052;15.458;2023-07-31T10:05:08;97432.31;;;25.20;100.00
10470;BME280;5282;47.052;15.458;2023-07-31T10:07:37;97436.13;;;25.52;100.00
10470;BME280;5282;47.052;15.458;2023-07-31T10:10:07;97441.94;;;25.55;100.00
10470;BME280;5282;47.052;15.458;2023-07-31T10:12:37;97432.13;;;25.80;100.00
10470;BME280;5282;47.052;15.458;2023-07-31T10:15:06;97425.47;;;25.76;99.55
10470;BME280;5282;47.052;15.458;2023-07-31T10:17:35;97428.47;;;25.64;100.00
10470;BME280;5282;47.052;15.458;2023-07-31T10:20:03;97428.75;;;25.73;100.00
10470;BME280;5282;47.052;15.458;2023-07-31T10:22:31;97426.53;;;25.60;100.00
10470;BME280;5282;47.052;15.458;2023-07-31T10:24:59;97414.50;;;25.81;100.00
10470;BME280;5282;47.052;15.458;2023-07-31T10:27:26;97412.03;;;25.95;100.00
10470;BME280;5282;47.052;15.458;2023-07-31T10:29:55;97409.97;;;26.28;100.00
10470;BME280;5282;47.052;15.458;2023-07-31T10:32:24;97406.94;;;26.45;100.00
10470;BME280;5282;47.052;15.458;2023-07-31T10:34:54;97411.94;;;26.48;99.47
10470;BME280;5282;47.052;15.458;2023-07-31T10:37:23;97410.56;;;26.72;100.00
10470;BME280;5282;47.052;15.458;2023-07-31T10:39:58;97404.22;;;26.51;100.00
10470;BME280;5282;47.052;15.458;2023-07-31T10:42:30;97399.78;;;26.44;100.00
10470;BME280;5282;47.052;15.458;2023-07-31T10:44:58;97408.91;;;26.76;100.00
10470;BME280;5282;47.052;15.458;2023-07-31T10:47:27;97398.97;;;26.54;97.97
10470;BME280;5282;47.052;15.458;2023-07-31T10:50:12;97411.97;;;26.79;100.00
10470;BME280;5282;47.052;15.458;2023-07-31T10:52:39;97404.69;;;26.22;97.33
10470;BME280;5282;47.052;15.458;2023-07-31T10:55:30;97405.56;;;26.58;100.00
10470;BME280;5282;47.052;15.458;2023-07-31T10:58:08;97401.19;;;26.99;100.00
10470;BME280;5282;47.052;15.458;2023-07-31T11:00:37;97399.25;;;26.89;100.00
10470;BME280;5282;47.052;15.458;2023-07-31T11:03:07;97394.25;;;27.12;100.00
10470;BME280;5282;47.052;15.458;2023-07-31T11:05:47;97393.09;;;27.38;98.02
10470;BME280;5282;47.052;15.458;2023-07-31T11:08:16;97394.75;;;27.39;98.76
10470;BME280;5282;47.052;15.458;2023-07-31T11:10:43;97386.47;;;27.50;87.79
10470;BME280;5282;47.052;15.458;2023-07-31T11:13:10;97390.34;;;27.44;91.35
10470;BME280;5282;47.052;15.458;2023-07-31T11:15:37;97383.22;;;27.17;98.11
10470;BME280;5282;47.052;15.458;2023-07-31T11:18:05;97387.13;;;26.95;91.64
10470;BME280;5282;47.052;15.458;2023-07-31T11:20:35;97377.75;;;26.86;96.17
10470;BME280;5282;47.052;15.458;2023-07-31T11:23:03;97382.63;;;27.30;99.37
10470;BME280;5282;47.052;15.458;2023-07-31T11:25:31;97382.56;;;27.66;83.51
10470;BME280;5282;47.052;15.458;2023-07-31T11:28:03;97373.72;;;27.64;88.63
10470;BME280;5282;47.052;15.458;2023-07-31T11:30:30;97374.81;;;27.58;84.58
10470;BME280;5282;47.052;15.458;2023-07-31T11:32:57;97368.03;;;26.99;81.11
10470;BME280;5282;47.052;15.458;2023-07-31T11:35:25;97363.91;;;26.81;99.43
10470;BME280;5282;47.052;15.458;2023-07-31T11:37:53;97366.13;;;26.94;96.98
10470;BME280;5282;47.052;15.458;2023-07-31T11:40:19;97362.78;;;26.66;100.00
10470;BME280;5282;47.052;15.458;2023-07-31T11:42:46;97358.38;;;26.39;100.00
10470;BME280;5282;47.052;15.458;2023-07-31T11:45:13;97350.34;;;26.17;100.00
10470;BME280;5282;47.052;15.458;2023-07-31T11:47:43;97345.94;;;26.47;100.00
10470;BME280;5282;47.052;15.458;2023-07-31T11:50:11;97341.53;;;27.03;100.00
10470;BME280;5282;47.052;15.458;2023-07-31T11:52:43;97344.47;;;27.37;100.00
10470;BME280;5282;47.052;15.458;2023-07-31T11:55:12;97337.16;;;27.78;100.00
10470;BME280;5282;47.052;15.458;2023-07-31T11:57:41;97335.69;;;27.91;99.37
10470;BME280;5282;47.052;15.458;2023-07-31T12:00:13;97330.16;;;27.91;83.70
10470;BME280;5282;47.052;15.458;2023-07-31T12:02:40;97326.75;;;28.04;95.77
10470;BME280;5282;47.052;15.458;2023-07-31T12:05:10;97314.66;;;27.95;98.71
10470;BME280;5282;47.052;15.458;2023-07-31T12:07:49;97316.22;;;27.56;95.09
10470;BME280;5282;47.052;15.458;2023-07-31T12:10:27;97316.31;;;27.25;95.63
10470;BME280;5282;47.052;15.458;2023-07-31T12:13:00;97305.28;;;27.20;96.23
10470;BME280;5282;47.052;15.458;2023-07-31T12:15:34;97314.34;;;27.96;98.82
10470;BME280;5282;47.052;15.458;2023-07-31T12:18:04;97310.75;;;27.96;82.96
10470;BME280;5282;47.052;15.458;2023-07-31T12:20:32;97301.13;;;27.88;87.79
10470;BME280;5282;47.052;15.458;2023-07-31T12:23:00;97296.78;;;27.71;86.51
10470;BME280;5282;47.052;15.458;2023-07-31T12:25:32;97287.25;;;27.93;97.95
10470;BME280;5282;47.052;15.458;2023-07-31T12:28:04;97279.91;;;28.18;99.94
10470;BME280;5282;47.052;15.458;2023-07-31T12:30:33;97273.50;;;28.28;72.92
10470;BME280;5282;47.052;15.458;2023-07-31T12:33:04;97275.19;;;28.18;83.11
10470;BME280;5282;47.052;15.458;2023-07-31T12:35:36;97269.47;;;28.05;91.18
10470;BME280;5282;47.052;15.458;2023-07-31T12:38:04;97270.47;;;28.24;95.12
10470;BME280;5282;47.052;15.458;2023-07-31T12:40:31;97268.31;;;28.16;83.45
10470;BME280;5282;47.052;15.458;2023-07-31T12:43:01;97267.88;;;27.98;92.00
10470;BME280;5282;47.052;15.458;2023-07-31T12:45:29;97255.72;;;27.94;92.64
10470;BME280;5282;47.052;15.458;2023-07-31T12:47:56;97256.72;;;27.69;100.00
10470;BME280;5282;47.052;15.458;2023-07-31T12:50:23;97244.97;;;27.37;100.00
10470;BME280;5282;47.052;15.458;2023-07-31T12:52:53;97243.19;;;27.02;95.01
10470;BME280;5282;47.052;15.458;2023-07-31T12:55:22;97254.56;;;26.64;99.62